Shives, Arkansas
Current Conditions -  °F | °C
As of 12:53 AM on Thursday 18 Dec 2014 (Local Time) from KGLH Reporting Station
Overcast Overcast  
Wind Chill: 38°   Ceiling: 7000
Heat Index: 43°   Visibility: 8mi
Dew Point: 37°   Wind: 9mph
Humidity: 80%   Direction: 40°NE
Pressure: 30.24"   Gusts: NA
Location:  33.3324°N, 91.3183°W
Report Text: KGLH 180653Z AUTO 04008KT 8SM OVC070 06/03 A3024 RMK AO2 SLP248 T00610028
Loading
Personal Weather Stations






























Interactive Weather Map New forecast layout! Learn more

10-Day Weather Forecast

Advertisements
Track Severe Weather on mobile